Time;durP1;ratioP1;P1;durP2;ratioP2;P2;SDS_P1;SDS_P2;PMS_P1;PMS_P2;Temp;Humidity;BMP_temperature;BMP_pressure;BME280_temperature;BME280_humidity;BME280_pressure;Samples;Min_cycle;Max_cycle;Signal;HPM_P1;HPM_P2
2021/12/10 00:00:00;;;;;;;38.05;24.08;;;;;;;;;;4922494;29;20118;-78
2021/12/10 00:02:33;;;;;;;33.95;22.25;;;;;;;;;;4938707;29;20396;-77
2021/12/10 00:04:59;;;;;;;38.35;23.63;;;;;;;;;;4922410;29;20050;-78
2021/12/10 00:07:26;;;;;;;36.10;22.77;;;;;;;;;;4939812;29;20036;-78
2021/12/10 00:09:54;;;;;;;34.22;22.02;;;;;;;;;;4925549;29;20044;-78
2021/12/10 00:12:23;;;;;;;41.83;24.15;;;;;;;;;;4944622;29;20024;-78
2021/12/10 00:14:50;;;;;;;47.17;24.60;;;;;;;;;;4940013;29;20031;-78
2021/12/10 00:17:16;;;;;;;44.85;24.75;;;;;;;;;;4921557;29;20036;-78
2021/12/10 00:19:47;;;;;;;52.20;28.13;;;;;;;;;;4921597;29;20031;-77
2021/12/10 00:22:19;;;;;;;57.33;29.33;;;;;;;;;;4920619;29;20031;-77
2021/12/10 00:24:46;;;;;;;53.58;27.75;;;;;;;;;;4939104;29;20032;-77
2021/12/10 00:27:12;;;;;;;52.65;26.58;;;;;;;;;;4938328;29;20031;-77
2021/12/10 00:29:41;;;;;;;55.33;28.00;;;;;;;;;;4921044;29;20738;-78
2021/12/10 00:32:16;;;;;;;49.45;25.83;;;;;;;;;;4921232;29;20543;-78
2021/12/10 00:34:50;;;;;;;48.75;24.55;;;;;;;;;;4938678;29;20020;-77
2021/12/10 00:37:21;;;;;;;51.20;26.45;;;;;;;;;;4939185;29;20028;-78
2021/12/10 00:39:52;;;;;;;61.83;30.75;;;;;;;;;;4939665;29;20054;-78
2021/12/10 00:42:21;;;;;;;47.47;25.38;;;;;;;;;;4922524;29;20042;-78
2021/12/10 00:44:47;;;;;;;57.28;29.58;;;;;;;;;;4944004;29;20083;-79
2021/12/10 00:47:13;;;;;;;87.47;40.90;;;;;;;;;;4946119;29;20020;-78
2021/12/10 00:49:40;;;;;;;59.92;31.67;;;;;;;;;;4924565;29;20071;-78
2021/12/10 00:52:07;;;;;;;56.50;28.80;;;;;;;;;;4925950;29;20064;-77
2021/12/10 00:54:33;;;;;;;75.78;39.55;;;;;;;;;;4910173;29;20136;-77
2021/12/10 00:56:59;;;;;;;45.88;26.52;;;;;;;;;;4926061;29;20416;-78
2021/12/10 00:59:25;;;;;;;45.35;25.63;;;;;;;;;;4907766;29;20028;-78
2021/12/10 01:01:52;;;;;;;43.40;24.90;;;;;;;;;;4923122;29;20126;-78
2021/12/10 01:04:20;;;;;;;46.85;26.10;;;;;;;;;;4930916;29;20105;-77
2021/12/10 01:06:48;;;;;;;54.10;29.08;;;;;;;;;;4944333;29;20032;-77
2021/12/10 01:09:18;;;;;;;51.90;29.30;;;;;;;;;;4927627;29;20470;-78
2021/12/10 01:11:49;;;;;;;41.80;25.30;;;;;;;;;;4944707;29;20048;-77
2021/12/10 01:14:23;;;;;;;47.35;27.13;;;;;;;;;;4928066;29;20031;-77
2021/12/10 01:25:23;;;;;;;53.85;28.65;;;;;;;;;;4940050;29;20055;-78
2021/12/10 01:27:49;;;;;;;47.97;27.52;;;;;;;;;;4925315;29;20030;-78
2021/12/10 01:30:15;;;;;;;64.88;33.13;;;;;;;;;;4950025;29;20043;-77
2021/12/10 01:32:43;;;;;;;50.70;28.17;;;;;;;;;;4950469;29;20501;-79
2021/12/10 01:35:12;;;;;;;50.10;27.70;;;;;;;;;;4945287;29;20024;-78
2021/12/10 01:37:38;;;;;;;57.05;29.30;;;;;;;;;;4907831;29;20031;-78
2021/12/10 01:40:06;;;;;;;52.55;28.95;;;;;;;;;;4924834;29;20032;-78
2021/12/10 01:42:53;;;;;;;39.85;24.80;;;;;;;;;;4942999;29;20393;-78
2021/12/10 01:45:25;;;;;;;52.03;29.02;;;;;;;;;;4940871;29;20591;-78
2021/12/10 01:48:03;;;;;;;46.67;27.13;;;;;;;;;;4944588;29;20036;-78
2021/12/10 01:50:29;;;;;;;46.88;26.30;;;;;;;;;;4943410;29;20043;-78
2021/12/10 01:52:57;;;;;;;46.92;28.70;;;;;;;;;;4925387;29;20099;-78
2021/12/10 01:55:25;;;;;;;42.05;24.90;;;;;;;;;;4943720;29;20030;-78
2021/12/10 01:57:51;;;;;;;40.03;23.95;;;;;;;;;;4940996;29;20040;-77
2021/12/10 02:00:18;;;;;;;40.22;25.17;;;;;;;;;;4926269;29;20091;-78
2021/12/10 02:02:45;;;;;;;37.15;23.73;;;;;;;;;;4925990;29;20091;-78
2021/12/10 02:05:12;;;;;;;43.40;27.02;;;;;;;;;;4942457;29;20031;-78
2021/12/10 02:07:38;;;;;;;55.88;27.30;;;;;;;;;;4943441;29;20027;-79
2021/12/10 02:10:06;;;;;;;39.28;24.30;;;;;;;;;;4943986;29;20047;-78
2021/12/10 02:12:32;;;;;;;42.70;26.73;;;;;;;;;;4944226;29;20032;-78
2021/12/10 02:15:01;;;;;;;40.80;24.48;;;;;;;;;;4944923;29;20026;-78
2021/12/10 02:17:28;;;;;;;40.38;25.58;;;;;;;;;;4945316;29;20512;-78
2021/12/10 02:19:54;;;;;;;43.10;26.75;;;;;;;;;;4944996;29;20028;-78
2021/12/10 02:22:21;;;;;;;43.30;26.85;;;;;;;;;;4941971;29;20052;-79
2021/12/10 02:24:47;;;;;;;43.22;28.00;;;;;;;;;;4944826;29;20079;-78
2021/12/10 02:27:13;;;;;;;41.28;26.83;;;;;;;;;;4944168;29;20024;-77
2021/12/10 02:29:41;;;;;;;46.00;28.50;;;;;;;;;;4944835;29;20088;-78
2021/12/10 02:32:10;;;;;;;45.38;27.73;;;;;;;;;;4923196;29;20066;-78
2021/12/10 02:34:36;;;;;;;46.55;28.77;;;;;;;;;;4928899;29;20027;-78
2021/12/10 02:37:04;;;;;;;45.95;28.60;;;;;;;;;;4911167;29;20087;-78
2021/12/10 02:39:30;;;;;;;43.33;28.08;;;;;;;;;;4945402;29;20035;-78
2021/12/10 02:41:56;;;;;;;40.17;27.48;;;;;;;;;;4944740;29;20373;-78
2021/12/10 02:44:24;;;;;;;42.80;28.30;;;;;;;;;;4940633;29;20568;-78
2021/12/10 02:46:50;;;;;;;49.40;30.58;;;;;;;;;;4944999;29;20147;-78
2021/12/10 02:49:17;;;;;;;44.58;27.58;;;;;;;;;;4949485;29;20032;-78
2021/12/10 02:51:44;;;;;;;45.20;29.88;;;;;;;;;;4917967;29;20104;-79
2021/12/10 02:54:11;;;;;;;43.38;29.00;;;;;;;;;;4928062;29;20024;-78
2021/12/10 02:56:39;;;;;;;47.15;29.50;;;;;;;;;;4926661;29;20482;-78
2021/12/10 02:59:05;;;;;;;43.25;28.13;;;;;;;;;;4910804;29;20039;-78
2021/12/10 03:01:35;;;;;;;44.50;28.77;;;;;;;;;;4943232;29;20031;-78
2021/12/10 03:04:01;;;;;;;42.65;28.40;;;;;;;;;;4943544;29;20043;-78
2021/12/10 03:06:29;;;;;;;42.50;28.50;;;;;;;;;;4927375;29;20028;-78
2021/12/10 03:08:55;;;;;;;40.78;27.80;;;;;;;;;;4941221;29;20042;-77
2021/12/10 03:11:25;;;;;;;42.95;28.30;;;;;;;;;;4922287;29;20047;-77
2021/12/10 03:13:52;;;;;;;42.20;28.35;;;;;;;;;;4938807;29;20027;-77
2021/12/10 03:16:19;;;;;;;43.75;28.10;;;;;;;;;;4940238;29;20035;-78
2021/12/10 03:18:45;;;;;;;42.05;28.42;;;;;;;;;;4930050;29;20203;-77
2021/12/10 03:21:12;;;;;;;41.65;27.98;;;;;;;;;;4941032;29;20426;-78
2021/12/10 03:23:42;;;;;;;41.78;26.88;;;;;;;;;;4943776;29;20397;-78
2021/12/10 03:26:09;;;;;;;41.30;27.33;;;;;;;;;;4936140;29;20119;-78
2021/12/10 03:28:37;;;;;;;43.95;28.55;;;;;;;;;;4908373;29;20397;-79
2021/12/10 03:31:05;;;;;;;39.38;26.42;;;;;;;;;;4919687;29;20035;-78
2021/12/10 03:33:31;;;;;;;41.03;27.50;;;;;;;;;;4925508;29;20031;-78
2021/12/10 03:35:57;;;;;;;39.00;26.15;;;;;;;;;;4940500;29;20366;-78
2021/12/10 03:38:25;;;;;;;40.63;27.42;;;;;;;;;;4941736;29;20484;-77
2021/12/10 03:40:52;;;;;;;40.15;26.52;;;;;;;;;;4944882;29;20037;-78
2021/12/10 03:43:18;;;;;;;41.33;28.10;;;;;;;;;;4925363;29;20465;-78
2021/12/10 03:45:50;;;;;;;43.47;28.23;;;;;;;;;;4943298;29;20032;-77
2021/12/10 03:48:17;;;;;;;43.65;28.25;;;;;;;;;;4941317;29;20055;-77
2021/12/10 03:50:44;;;;;;;44.70;28.20;;;;;;;;;;4927037;29;20123;-77
2021/12/10 03:53:11;;;;;;;43.08;27.73;;;;;;;;;;4926080;29;20363;-78
2021/12/10 03:55:37;;;;;;;43.58;26.88;;;;;;;;;;4925737;29;20117;-77
2021/12/10 03:58:03;;;;;;;44.10;28.55;;;;;;;;;;4923163;29;20027;-78
2021/12/10 04:00:33;;;;;;;44.33;28.70;;;;;;;;;;4942409;29;20072;-78
2021/12/10 04:03:00;;;;;;;48.13;30.10;;;;;;;;;;4924667;29;20098;-78
2021/12/10 04:05:26;;;;;;;47.60;30.38;;;;;;;;;;4943113;29;20066;-78
2021/12/10 04:07:52;;;;;;;46.22;28.58;;;;;;;;;;4923604;29;20034;-77
2021/12/10 04:10:22;;;;;;;44.78;29.13;;;;;;;;;;4908355;29;20040;-78
2021/12/10 04:12:48;;;;;;;53.13;30.70;;;;;;;;;;4926210;29;20040;-79
2021/12/10 04:15:20;;;;;;;47.15;30.88;;;;;;;;;;4925915;29;20032;-78
2021/12/10 04:17:49;;;;;;;49.13;30.65;;;;;;;;;;4927256;29;20042;-77
2021/12/10 04:20:20;;;;;;;51.75;31.67;;;;;;;;;;4946283;29;20039;-78
2021/12/10 04:22:49;;;;;;;47.25;29.80;;;;;;;;;;4939201;29;20561;-79
2021/12/10 04:25:16;;;;;;;48.17;30.42;;;;;;;;;;4944970;29;20079;-78
2021/12/10 04:27:44;;;;;;;48.03;29.20;;;;;;;;;;4943152;29;20024;-78
2021/12/10 04:30:12;;;;;;;46.10;29.75;;;;;;;;;;4944575;29;20027;-78
2021/12/10 04:32:38;;;;;;;49.40;29.75;;;;;;;;;;4945687;29;20028;-78
2021/12/10 04:35:04;;;;;;;46.90;28.75;;;;;;;;;;4949622;29;20106;-78
2021/12/10 04:37:31;;;;;;;47.70;28.58;;;;;;;;;;4945902;29;20030;-78
2021/12/10 04:40:00;;;;;;;51.00;30.10;;;;;;;;;;4926451;29;20031;-77
2021/12/10 04:42:26;;;;;;;45.80;29.17;;;;;;;;;;4944087;29;20059;-78
2021/12/10 04:44:53;;;;;;;50.22;31.48;;;;;;;;;;4943790;29;20032;-77
2021/12/10 04:47:19;;;;;;;54.45;32.63;;;;;;;;;;4943483;29;20028;-77
2021/12/10 04:49:47;;;;;;;55.78;33.30;;;;;;;;;;4943890;29;20123;-78
2021/12/10 04:52:13;;;;;;;53.08;32.70;;;;;;;;;;4943657;29;20039;-77
2021/12/10 04:54:39;;;;;;;51.97;31.30;;;;;;;;;;4943561;29;20028;-77
2021/12/10 04:57:06;;;;;;;52.05;32.58;;;;;;;;;;4942423;29;20058;-78
2021/12/10 04:59:33;;;;;;;46.20;28.58;;;;;;;;;;4926623;29;20466;-78
2021/12/10 05:02:00;;;;;;;52.38;29.67;;;;;;;;;;4943951;29;20043;-78
2021/12/10 05:04:28;;;;;;;49.70;29.98;;;;;;;;;;4948164;29;20024;-78
2021/12/10 05:06:54;;;;;;;44.75;27.90;;;;;;;;;;4945349;29;20032;-78
2021/12/10 05:09:21;;;;;;;47.25;29.08;;;;;;;;;;4947701;29;20032;-78
2021/12/10 05:11:48;;;;;;;45.92;28.02;;;;;;;;;;4930081;29;20039;-78
2021/12/10 05:14:15;;;;;;;46.72;28.35;;;;;;;;;;4949370;29;20093;-78
2021/12/10 05:16:44;;;;;;;44.85;27.35;;;;;;;;;;4933346;29;20435;-77
2021/12/10 05:19:11;;;;;;;47.47;27.65;;;;;;;;;;4910306;29;20405;-78
2021/12/10 05:21:38;;;;;;;45.75;28.85;;;;;;;;;;4940771;29;20402;-78
2021/12/10 05:24:05;;;;;;;49.50;28.73;;;;;;;;;;4928581;29;20028;-77
2021/12/10 05:26:32;;;;;;;49.00;29.77;;;;;;;;;;4927920;29;20063;-77
2021/12/10 05:28:59;;;;;;;51.45;30.02;;;;;;;;;;4946483;29;20470;-78
2021/12/10 05:31:26;;;;;;;46.80;28.35;;;;;;;;;;4947430;29;20504;-78
2021/12/10 05:33:52;;;;;;;47.45;27.92;;;;;;;;;;4947248;29;20032;-77
2021/12/10 05:36:18;;;;;;;47.05;27.92;;;;;;;;;;4946339;29;20031;-78
2021/12/10 05:38:47;;;;;;;52.28;29.15;;;;;;;;;;4930194;29;20031;-78
2021/12/10 05:41:14;;;;;;;56.58;31.25;;;;;;;;;;4948692;29;20107;-79
2021/12/10 05:43:43;;;;;;;49.63;30.42;;;;;;;;;;4947946;29;20040;-78
2021/12/10 05:46:10;;;;;;;50.97;30.30;;;;;;;;;;4946333;29;20039;-79
2021/12/10 05:48:36;;;;;;;59.03;32.17;;;;;;;;;;4932736;29;20035;-78
2021/12/10 05:51:03;;;;;;;65.38;33.70;;;;;;;;;;4949741;29;20028;-78
2021/12/10 05:53:29;;;;;;;56.28;31.48;;;;;;;;;;4933678;29;20046;-78
2021/12/10 05:55:58;;;;;;;57.13;32.65;;;;;;;;;;4923470;29;20028;-79
2021/12/10 05:58:28;;;;;;;48.38;30.63;;;;;;;;;;4941069;29;20028;-79
2021/12/10 06:01:03;;;;;;;54.08;31.15;;;;;;;;;;4952507;29;20035;-78
2021/12/10 06:03:30;;;;;;;55.42;30.73;;;;;;;;;;4936756;29;20047;-79
2021/12/10 06:05:57;;;;;;;50.33;30.23;;;;;;;;;;4950755;29;20118;-78
2021/12/10 06:08:23;;;;;;;63.03;34.17;;;;;;;;;;4945441;29;20028;-77
2021/12/10 06:10:50;;;;;;;65.50;33.95;;;;;;;;;;4929600;29;20052;-78
2021/12/10 06:13:16;;;;;;;58.78;31.42;;;;;;;;;;4922132;29;20134;-78
2021/12/10 06:15:43;;;;;;;52.97;31.10;;;;;;;;;;4947467;29;20034;-78
2021/12/10 06:18:10;;;;;;;63.50;33.63;;;;;;;;;;4948303;29;20034;-79
2021/12/10 06:20:38;;;;;;;61.45;33.53;;;;;;;;;;4941160;29;20027;-79
2021/12/10 06:23:05;;;;;;;55.03;33.13;;;;;;;;;;4933926;29;20066;-80
2021/12/10 06:25:31;;;;;;;52.10;31.40;;;;;;;;;;4932936;29;20070;-77
2021/12/10 06:27:58;;;;;;;58.25;34.03;;;;;;;;;;4946078;29;20024;-79
2021/12/10 06:30:30;;;;;;;52.78;32.05;;;;;;;;;;4918927;29;20029;-78
2021/12/10 06:32:56;;;;;;;54.67;33.05;;;;;;;;;;4950052;29;20035;-79
2021/12/10 06:35:43;;;;;;;69.10;39.67;;;;;;;;;;4951861;29;20043;-78
2021/12/10 06:38:10;;;;;;;90.72;49.50;;;;;;;;;;4922252;29;20038;-78
2021/12/10 06:40:37;;;;;;;77.85;45.13;;;;;;;;;;4945654;29;20083;-78
2021/12/10 06:43:04;;;;;;;93.90;59.15;;;;;;;;;;4924505;29;20024;-78
2021/12/10 06:45:32;;;;;;;114.18;74.72;;;;;;;;;;4918808;29;20039;-79
2021/12/10 06:48:01;;;;;;;69.70;42.35;;;;;;;;;;4922738;29;20036;-79
2021/12/10 06:50:30;;;;;;;66.43;40.05;;;;;;;;;;4949225;29;20505;-79
2021/12/10 06:53:01;;;;;;;71.22;41.50;;;;;;;;;;4948630;29;20062;-78
2021/12/10 06:55:28;;;;;;;71.43;42.10;;;;;;;;;;4932974;29;20031;-78
2021/12/10 06:57:54;;;;;;;68.68;40.97;;;;;;;;;;4929656;29;20098;-78
2021/12/10 07:00:22;;;;;;;70.45;41.85;;;;;;;;;;4931882;29;20039;-78
2021/12/10 07:02:50;;;;;;;67.95;41.83;;;;;;;;;;4943941;29;20386;-79
2021/12/10 07:05:16;;;;;;;73.88;42.55;;;;;;;;;;4914695;29;20034;-77
2021/12/10 07:07:51;;;;;;;70.85;41.03;;;;;;;;;;4945859;29;20034;-77
2021/12/10 07:10:45;;;;;;;70.60;41.45;;;;;;;;;;4948429;29;20052;-78
2021/12/10 07:13:26;;;;;;;66.47;39.75;;;;;;;;;;4946861;28;20032;-78
2021/12/10 07:16:13;;;;;;;66.20;40.67;;;;;;;;;;4954411;28;20091;-78
2021/12/10 07:19:14;;;;;;;67.93;42.60;;;;;;;;;;4952409;29;20040;-78
2021/12/10 07:21:41;;;;;;;80.68;45.10;;;;;;;;;;4932500;29;20052;-78
2021/12/10 07:24:10;;;;;;;64.00;41.85;;;;;;;;;;4941113;29;20131;-77
2021/12/10 07:37:42;;;;;;;57.28;35.97;;;;;;;;;;5301118;23;20052;-76
2021/12/10 07:40:11;;;;;;;55.95;35.97;;;;;;;;;;4981011;28;20030;-78
2021/12/10 07:42:58;;;;;;;64.28;39.67;;;;;;;;;;4964889;29;20027;-78
2021/12/10 07:45:27;;;;;;;62.45;38.83;;;;;;;;;;4989689;28;20086;-77
2021/12/10 07:47:54;;;;;;;59.85;36.70;;;;;;;;;;4983444;28;20078;-79
2021/12/10 07:50:41;;;;;;;59.15;36.58;;;;;;;;;;4989108;28;20050;-78
2021/12/10 07:53:11;;;;;;;56.50;34.63;;;;;;;;;;4989234;28;20027;-77
2021/12/10 07:55:46;;;;;;;58.65;36.47;;;;;;;;;;5180563;23;20043;-78
2021/12/10 07:58:12;;;;;;;75.15;46.35;;;;;;;;;;4918684;29;20040;-78
2021/12/10 08:00:40;;;;;;;64.55;38.95;;;;;;;;;;4892211;29;20514;-77
2021/12/10 08:03:07;;;;;;;67.88;39.22;;;;;;;;;;4882476;29;20052;-77
2021/12/10 08:13:57;;;;;;;57.38;36.53;;;;;;;;;;5010702;23;20050;-76
2021/12/10 08:16:25;;;;;;;65.90;38.20;;;;;;;;;;4967465;28;20098;-78
2021/12/10 08:18:56;;;;;;;55.90;35.15;;;;;;;;;;4971812;28;20035;-78
2021/12/10 08:21:23;;;;;;;59.28;35.97;;;;;;;;;;4969105;28;20031;-80
2021/12/10 08:23:50;;;;;;;66.07;39.70;;;;;;;;;;4973629;28;20059;-77
2021/12/10 08:26:16;;;;;;;63.47;38.38;;;;;;;;;;4984450;28;20029;-76
2021/12/10 08:28:42;;;;;;;67.47;38.47;;;;;;;;;;4978990;28;20030;-76
2021/12/10 08:31:09;;;;;;;61.45;38.95;;;;;;;;;;4982311;28;20022;-76
2021/12/10 08:33:38;;;;;;;55.25;36.40;;;;;;;;;;4959237;28;20126;-76
2021/12/10 08:36:12;;;;;;;52.53;33.88;;;;;;;;;;4960628;28;20046;-77
2021/12/10 08:38:57;;;;;;;52.05;32.33;;;;;;;;;;4956023;28;20027;-79
2021/12/10 08:46:54;;;;;;;53.55;32.85;;;;;;;;;;5105702;23;20070;-78
2021/12/10 08:49:21;;;;;;;53.65;33.42;;;;;;;;;;4964748;28;20031;-77
2021/12/10 08:51:49;;;;;;;52.95;34.38;;;;;;;;;;4976482;28;20050;-79
2021/12/10 08:54:17;;;;;;;53.47;36.55;;;;;;;;;;4976138;28;20037;-78
2021/12/10 08:56:50;;;;;;;67.60;49.97;;;;;;;;;;4976517;28;20035;-77
2021/12/10 08:59:19;;;;;;;44.10;30.90;;;;;;;;;;4972644;28;20054;-77
2021/12/10 09:01:50;;;;;;;46.97;30.73;;;;;;;;;;4980101;28;20042;-80
2021/12/10 09:04:30;;;;;;;43.92;30.25;;;;;;;;;;4982885;28;20131;-79
2021/12/10 09:07:23;;;;;;;46.00;32.33;;;;;;;;;;4983069;28;20067;-79
2021/12/10 09:16:00;;;;;;;45.70;30.38;;;;;;;;;;5060804;23;20075;-78
2021/12/10 09:18:29;;;;;;;51.78;34.85;;;;;;;;;;4968654;28;20086;-75
2021/12/10 09:23:35;;;;;;;47.65;33.17;;;;;;;;;;5155623;23;20071;-77
2021/12/10 09:26:03;;;;;;;48.25;34.00;;;;;;;;;;4953162;28;20031;-78
2021/12/10 09:28:30;;;;;;;51.13;34.65;;;;;;;;;;4956124;28;20035;-76
2021/12/10 09:30:57;;;;;;;50.15;33.78;;;;;;;;;;4986662;28;20034;-75
2021/12/10 09:33:23;;;;;;;51.80;34.38;;;;;;;;;;4968845;28;20089;-75
2021/12/10 09:35:50;;;;;;;47.33;32.42;;;;;;;;;;4988300;28;20033;-77
2021/12/10 09:38:16;;;;;;;47.45;32.58;;;;;;;;;;4987655;28;20117;-77
2021/12/10 09:40:48;;;;;;;50.00;32.33;;;;;;;;;;4993390;28;20027;-76
2021/12/10 09:43:15;;;;;;;45.03;32.20;;;;;;;;;;4969011;28;20081;-76
2021/12/10 09:45:46;;;;;;;46.95;30.23;;;;;;;;;;4979657;28;20105;-78
2021/12/10 09:48:20;;;;;;;38.20;27.48;;;;;;;;;;4972951;28;20035;-77
2021/12/10 09:50:54;;;;;;;35.30;26.08;;;;;;;;;;4982363;28;20047;-77
2021/12/10 09:53:24;;;;;;;42.92;28.42;;;;;;;;;;4970905;28;20030;-79
2021/12/10 09:55:53;;;;;;;38.08;27.65;;;;;;;;;;4983910;28;20027;-80
2021/12/10 09:58:39;;;;;;;39.97;27.15;;;;;;;;;;4983254;28;20085;-79
2021/12/10 10:01:08;;;;;;;40.33;28.63;;;;;;;;;;4975340;28;20037;-74
2021/12/10 10:03:37;;;;;;;38.35;27.27;;;;;;;;;;4986306;28;20031;-79
2021/12/10 10:06:04;;;;;;;39.88;27.65;;;;;;;;;;4965275;28;20034;-78
2021/12/10 10:08:32;;;;;;;40.30;29.40;;;;;;;;;;4984822;28;20031;-79
2021/12/10 10:13:36;;;;;;;36.97;26.63;;;;;;;;;;5046555;23;20115;-74
2021/12/10 10:21:23;;;;;;;29.05;21.92;;;;;;;;;;4921651;29;20056;-76
2021/12/10 10:23:49;;;;;;;24.88;18.27;;;;;;;;;;4930028;29;20056;-77
2021/12/10 10:26:19;;;;;;;47.08;33.25;;;;;;;;;;4920634;29;20020;-79
2021/12/10 10:28:52;;;;;;;89.45;52.70;;;;;;;;;;4928834;29;20104;-78
2021/12/10 10:31:22;;;;;;;43.97;28.45;;;;;;;;;;4931217;29;20036;-79
2021/12/10 10:33:59;;;;;;;48.78;33.10;;;;;;;;;;4936352;29;20039;-79
2021/12/10 10:36:54;;;;;;;41.10;28.60;;;;;;;;;;4937229;29;20020;-79
2021/12/10 10:39:48;;;;;;;33.25;23.23;;;;;;;;;;4922001;29;20013;-80
2021/12/10 10:48:54;;;;;;;28.65;21.02;;;;;;;;;;5215455;23;20049;-83
2021/12/10 10:51:39;;;;;;;21.92;16.63;;;;;;;;;;4937716;28;20036;-81
2021/12/10 10:54:09;;;;;;;22.45;17.92;;;;;;;;;;4921785;29;20024;-80
2021/12/10 10:56:57;;;;;;;33.40;23.95;;;;;;;;;;5015710;23;20035;-81
2021/12/10 10:59:33;;;;;;;32.33;23.35;;;;;;;;;;4911145;29;20044;-79
2021/12/10 11:02:07;;;;;;;30.35;22.10;;;;;;;;;;4905792;29;20048;-76
2021/12/10 11:04:33;;;;;;;;;;;;;;;;;;4897064;29;20541;-77
2021/12/10 11:07:07;;;;;;;35.70;23.55;;;;;;;;;;4888999;29;19955;-78
2021/12/10 11:17:31;;;;;;;28.65;20.23;;;;;;;;;;5134067;23;20066;-78
2021/12/10 11:20:10;;;;;;;25.50;18.75;;;;;;;;;;4942151;28;20046;-78
2021/12/10 11:22:44;;;;;;;27.90;20.73;;;;;;;;;;4933350;29;20031;-76
2021/12/10 11:25:34;;;;;;;32.35;23.20;;;;;;;;;;4947384;28;20031;-78
2021/12/10 11:28:26;;;;;;;32.50;23.30;;;;;;;;;;4931770;29;20395;-79
2021/12/10 11:31:04;;;;;;;36.50;25.27;;;;;;;;;;4920581;29;20442;-75
2021/12/10 11:33:36;;;;;;;35.53;26.58;;;;;;;;;;4911406;29;20502;-75
2021/12/10 11:36:26;;;;;;;39.37;27.40;;;;;;;;;;4914849;29;20033;-77
2021/12/10 11:39:02;;;;;;;40.22;26.58;;;;;;;;;;4919888;29;20301;-77
2021/12/10 11:41:55;;;;;;;40.92;28.67;;;;;;;;;;4916114;29;20422;-78
2021/12/10 11:48:10;;;;;;;40.13;27.83;;;;;;;;;;4958475;23;20091;-78
2021/12/10 11:51:08;;;;;;;42.65;27.38;;;;;;;;;;4927585;29;20052;-77
2021/12/10 11:54:01;;;;;;;41.30;29.77;;;;;;;;;;4920269;29;20039;-79
2021/12/10 11:56:37;;;;;;;32.63;22.10;;;;;;;;;;4921301;29;20048;-78
2021/12/10 11:59:38;;;;;;;33.03;22.15;;;;;;;;;;4925330;29;20043;-75
2021/12/10 12:02:08;;;;;;;38.78;26.73;;;;;;;;;;4922403;29;20044;-77
2021/12/10 12:04:41;;;;;;;34.92;24.40;;;;;;;;;;5014849;23;2402623;-78
2021/12/10 12:07:29;;;;;;;38.17;27.33;;;;;;;;;;4915521;29;20094;-79
2021/12/10 12:12:38;;;;;;;39.13;27.90;;;;;;;;;;5724246;23;20052;-76
2021/12/10 12:15:24;;;;;;;40.33;28.95;;;;;;;;;;4935132;29;20106;-78
2021/12/10 12:34:19;;;;;;;37.25;25.35;;;;;;;;;;5004076;23;20051;-78
2021/12/10 12:36:54;;;;;;;39.00;25.75;;;;;;;;;;4964080;29;20054;-77
2021/12/10 12:51:28;;;;;;;46.30;31.30;;;;;;;;;;5006770;28;20041;-78
2021/12/10 12:54:07;;;;;;;49.35;31.50;;;;;;;;;;4990273;28;20140;-79
2021/12/10 13:50:21;;;;;;;43.97;29.35;;;;;;;;;;4929079;29;20079;-76
2021/12/10 13:52:55;;;;;;;41.58;29.13;;;;;;;;;;4935905;29;20184;-78
2021/12/10 13:55:26;;;;;;;45.47;30.85;;;;;;;;;;4926332;29;20078;-79
2021/12/10 13:58:14;;;;;;;51.47;33.30;;;;;;;;;;4925198;29;20039;-79
2021/12/10 14:00:58;;;;;;;57.25;35.53;;;;;;;;;;4932834;29;20040;-79
2021/12/10 14:03:42;;;;;;;41.00;29.35;;;;;;;;;;4930034;29;20040;-77
2021/12/10 14:06:09;;;;;;;48.97;31.83;;;;;;;;;;4909191;29;20031;-75
2021/12/10 14:09:06;;;;;;;45.00;30.05;;;;;;;;;;4909678;29;20025;-79
2021/12/10 14:12:07;;;;;;;39.72;28.40;;;;;;;;;;4924129;29;20039;-78
2021/12/10 14:14:50;;;;;;;34.97;27.33;;;;;;;;;;4863109;29;20573;-77
2021/12/10 14:17:27;;;;;;;35.47;24.83;;;;;;;;;;4858063;29;20025;-76
2021/12/10 14:19:57;;;;;;;32.40;23.73;;;;;;;;;;4864765;29;20036;-78
2021/12/10 14:22:48;;;;;;;43.67;31.73;;;;;;;;;;4907822;29;20498;-77
2021/12/10 14:25:21;;;;;;;49.65;35.53;;;;;;;;;;4907255;29;20041;-78
2021/12/10 14:27:55;;;;;;;41.30;28.15;;;;;;;;;;4897630;29;20049;-78
2021/12/10 14:30:22;;;;;;;42.08;29.05;;;;;;;;;;4895075;29;20071;-77
2021/12/10 14:33:07;;;;;;;36.97;26.73;;;;;;;;;;4896772;29;20035;-78
2021/12/10 14:35:44;;;;;;;37.22;28.05;;;;;;;;;;4889346;29;20028;-76
2021/12/10 14:38:10;;;;;;;38.10;27.45;;;;;;;;;;4916105;29;20040;-76
2021/12/10 14:58:20;;;;;;;53.92;34.17;;;;;;;;;;5362438;23;20059;-79
2021/12/10 15:01:12;;;;;;;59.80;36.70;;;;;;;;;;4905429;29;20118;-78
2021/12/10 15:03:57;;;;;;;62.85;39.67;;;;;;;;;;4896870;29;20040;-78
2021/12/10 15:06:28;;;;;;;56.83;35.63;;;;;;;;;;4935436;29;20005;-77
2021/12/10 15:08:57;;;;;;;58.20;37.35;;;;;;;;;;4925194;29;20024;-79
2021/12/10 15:11:40;;;;;;;56.42;37.47;;;;;;;;;;4911910;29;20036;-78
2021/12/10 15:14:22;;;;;;;59.53;37.30;;;;;;;;;;4917887;29;20032;-79
2021/12/10 15:16:53;;;;;;;61.08;36.85;;;;;;;;;;4916008;29;20123;-78
2021/12/10 15:19:46;;;;;;;59.03;35.63;;;;;;;;;;4909058;29;20048;-76
2021/12/10 15:22:19;;;;;;;56.05;37.03;;;;;;;;;;4898445;29;20032;-75
2021/12/10 15:24:59;;;;;;;55.92;37.83;;;;;;;;;;4914701;29;20064;-76
2021/12/10 15:27:42;;;;;;;51.55;34.00;;;;;;;;;;4895435;29;20022;-74
2021/12/10 15:40:40;;;;;;;61.53;37.90;;;;;;;;;;5165835;23;20062;-78
2021/12/10 15:43:28;;;;;;;61.38;38.40;;;;;;;;;;4967845;28;20035;-78
2021/12/10 15:46:19;;;;;;;59.22;37.20;;;;;;;;;;4957060;29;20029;-77
2021/12/10 15:48:51;;;;;;;61.85;38.80;;;;;;;;;;4960920;29;20030;-77
2021/12/10 15:51:36;;;;;;;61.97;40.90;;;;;;;;;;4972062;29;20031;-77
2021/12/10 15:54:25;;;;;;;63.55;40.67;;;;;;;;;;4940339;29;20547;-77
2021/12/10 15:57:00;;;;;;;63.42;40.20;;;;;;;;;;4923459;29;20043;-78
2021/12/10 15:59:30;;;;;;;61.88;38.33;;;;;;;;;;4948787;29;20092;-78
2021/12/10 16:01:59;;;;;;;63.92;39.00;;;;;;;;;;4962874;29;20540;-75
2021/12/10 16:09:54;;;;;;;63.05;36.83;;;;;;;;;;5743547;23;20402;-78
2021/12/10 16:12:21;;;;;;;59.92;37.88;;;;;;;;;;4944265;29;20027;-78
2021/12/10 16:14:49;;;;;;;60.88;39.75;;;;;;;;;;4944133;29;20086;-77
2021/12/10 16:17:18;;;;;;;59.70;38.28;;;;;;;;;;4943409;29;20111;-77
2021/12/10 16:43:24;;;;;;;87.00;45.15;;;;;;;;;;6063678;23;20055;31
2021/12/10 16:54:36;;;;;;;72.20;40.22;;;;;;;;;;5697996;23;20043;-77
2021/12/10 17:02:32;;;;;;;80.20;44.78;;;;;;;;;;5074734;23;20116;-78
2021/12/10 17:05:20;;;;;;;77.88;42.67;;;;;;;;;;4957804;29;20027;-79
2021/12/10 17:07:49;;;;;;;87.15;45.03;;;;;;;;;;4971047;28;20040;-79
2021/12/10 17:10:20;;;;;;;80.18;44.03;;;;;;;;;;4965508;29;20035;-77
2021/12/10 17:13:10;;;;;;;84.18;46.40;;;;;;;;;;4948498;28;20059;-79
2021/12/10 17:16:00;;;;;;;69.57;38.97;;;;;;;;;;4957158;29;20020;-81
2021/12/10 17:18:28;;;;;;;74.07;41.63;;;;;;;;;;4969898;28;20047;-78
2021/12/10 17:20:59;;;;;;;81.30;41.85;;;;;;;;;;4967475;28;20023;-79
2021/12/10 17:23:35;;;;;;;66.55;36.08;;;;;;;;;;4972001;28;20054;-79
2021/12/10 17:26:05;;;;;;;63.15;35.55;;;;;;;;;;4987591;28;20023;-79
2021/12/10 17:28:38;;;;;;;62.95;32.85;;;;;;;;;;4962826;28;20043;-79
2021/12/10 17:31:32;;;;;;;67.38;34.75;;;;;;;;;;4976797;28;20031;-78
2021/12/10 17:34:00;;;;;;;75.15;39.65;;;;;;;;;;4978935;28;20123;-78
2021/12/10 17:36:33;;;;;;;80.15;41.28;;;;;;;;;;4953730;28;20034;-79
2021/12/10 17:39:06;;;;;;;74.55;39.90;;;;;;;;;;4980542;28;20027;-78
2021/12/10 17:41:34;;;;;;;82.50;40.25;;;;;;;;;;4941984;28;20474;-78
2021/12/10 17:44:05;;;;;;;79.47;40.58;;;;;;;;;;4939811;28;20042;-77
2021/12/10 17:46:38;;;;;;;79.90;39.03;;;;;;;;;;4975411;28;20023;-78
2021/12/10 17:49:09;;;;;;;81.20;41.47;;;;;;;;;;4972771;28;20027;-78
2021/12/10 17:51:37;;;;;;;81.00;43.00;;;;;;;;;;4947759;29;20393;-78
2021/12/10 17:54:10;;;;;;;87.18;45.13;;;;;;;;;;4971879;28;20054;-79
2021/12/10 17:56:37;;;;;;;87.00;44.25;;;;;;;;;;4983611;28;20019;-79
2021/12/10 17:59:06;;;;;;;94.03;45.05;;;;;;;;;;4969738;29;20087;-79
2021/12/10 18:01:39;;;;;;;86.00;43.08;;;;;;;;;;4968338;28;20078;-78
2021/12/10 18:04:16;;;;;;;82.75;42.78;;;;;;;;;;4970283;28;20398;-79
2021/12/10 18:07:02;;;;;;;82.60;41.92;;;;;;;;;;4973065;29;20038;-79
2021/12/10 18:09:33;;;;;;;88.28;41.63;;;;;;;;;;4959084;29;20036;-79
2021/12/10 18:12:09;;;;;;;89.00;45.10;;;;;;;;;;4972973;28;20041;-79
2021/12/10 18:15:03;;;;;;;86.35;44.60;;;;;;;;;;4963626;29;20102;-78
2021/12/10 18:17:31;;;;;;;86.47;41.20;;;;;;;;;;4957688;29;20094;-78
2021/12/10 18:20:08;;;;;;;93.90;43.50;;;;;;;;;;4950343;29;20039;-78
2021/12/10 18:22:42;;;;;;;95.18;43.05;;;;;;;;;;4955084;29;20095;-78
2021/12/10 18:25:08;;;;;;;91.85;43.72;;;;;;;;;;4947325;29;20035;-78